sensor_id;sensor_type;location;lat;lon;timestamp;temperature;humidity
40638;DHT22;26336;44.696;10.622;2023-05-20T00:00:26;15.10;99.90
40638;DHT22;26336;44.696;10.622;2023-05-20T00:03:30;15.10;99.90
40638;DHT22;26336;44.696;10.622;2023-05-20T00:06:33;15.10;99.90
40638;DHT22;26336;44.696;10.622;2023-05-20T00:09:38;15.10;99.90
40638;DHT22;26336;44.696;10.622;2023-05-20T00:12:41;15.10;99.90
40638;DHT22;26336;44.696;10.622;2023-05-20T00:15:45;15.10;99.90
40638;DHT22;26336;44.696;10.622;2023-05-20T00:18:49;15.10;99.90
40638;DHT22;26336;44.696;10.622;2023-05-20T00:21:53;15.10;99.90
40638;DHT22;26336;44.696;10.622;2023-05-20T00:24:57;15.10;99.90
40638;DHT22;26336;44.696;10.622;2023-05-20T00:28:00;15.10;99.90
40638;DHT22;26336;44.696;10.622;2023-05-20T00:31:03;15.10;99.90
40638;DHT22;26336;44.696;10.622;2023-05-20T00:34:07;15.10;99.90
40638;DHT22;26336;44.696;10.622;2023-05-20T00:37:11;15.10;99.90
40638;DHT22;26336;44.696;10.622;2023-05-20T00:40:15;15.10;99.90
40638;DHT22;26336;44.696;10.622;2023-05-20T00:43:19;15.10;99.90
40638;DHT22;26336;44.696;10.622;2023-05-20T00:46:23;15.10;99.90
40638;DHT22;26336;44.696;10.622;2023-05-20T00:49:26;15.10;99.90
40638;DHT22;26336;44.696;10.622;2023-05-20T00:52:31;15.10;99.90
40638;DHT22;26336;44.696;10.622;2023-05-20T00:55:34;15.10;99.90
40638;DHT22;26336;44.696;10.622;2023-05-20T00:58:38;15.10;99.90
40638;DHT22;26336;44.696;10.622;2023-05-20T01:01:42;15.10;99.90
40638;DHT22;26336;44.696;10.622;2023-05-20T01:04:46;15.10;99.90
40638;DHT22;26336;44.696;10.622;2023-05-20T01:07:50;15.10;99.90
40638;DHT22;26336;44.696;10.622;2023-05-20T01:10:57;15.10;99.90
40638;DHT22;26336;44.696;10.622;2023-05-20T01:14:02;15.10;99.90
40638;DHT22;26336;44.696;10.622;2023-05-20T01:17:07;15.10;99.90
40638;DHT22;26336;44.696;10.622;2023-05-20T01:20:13;15.10;99.90
40638;DHT22;26336;44.696;10.622;2023-05-20T01:23:17;15.10;99.90
40638;DHT22;26336;44.696;10.622;2023-05-20T01:26:21;15.10;99.90
40638;DHT22;26336;44.696;10.622;2023-05-20T01:29:29;15.10;99.90
40638;DHT22;26336;44.696;10.622;2023-05-20T01:32:36;15.10;99.90
40638;DHT22;26336;44.696;10.622;2023-05-20T01:35:40;15.10;99.90
40638;DHT22;26336;44.696;10.622;2023-05-20T01:38:45;15.10;99.90
40638;DHT22;26336;44.696;10.622;2023-05-20T01:41:50;15.00;99.90
40638;DHT22;26336;44.696;10.622;2023-05-20T01:44:54;15.00;99.90
40638;DHT22;26336;44.696;10.622;2023-05-20T01:47:57;15.00;99.90
40638;DHT22;26336;44.696;10.622;2023-05-20T01:51:02;15.00;99.90
40638;DHT22;26336;44.696;10.622;2023-05-20T01:54:05;15.00;99.90
40638;DHT22;26336;44.696;10.622;2023-05-20T01:57:08;15.00;99.90
40638;DHT22;26336;44.696;10.622;2023-05-20T02:00:13;15.00;99.90
40638;DHT22;26336;44.696;10.622;2023-05-20T02:03:21;15.00;99.90
40638;DHT22;26336;44.696;10.622;2023-05-20T02:06:25;15.00;99.90
40638;DHT22;26336;44.696;10.622;2023-05-20T02:09:28;15.00;99.90
40638;DHT22;26336;44.696;10.622;2023-05-20T02:12:31;15.00;99.90
40638;DHT22;26336;44.696;10.622;2023-05-20T02:15:35;15.00;99.90
40638;DHT22;26336;44.696;10.622;2023-05-20T02:18:43;15.00;99.90
40638;DHT22;26336;44.696;10.622;2023-05-20T02:21:47;15.00;99.90
40638;DHT22;26336;44.696;10.622;2023-05-20T02:24:51;15.00;99.90
40638;DHT22;26336;44.696;10.622;2023-05-20T02:27:54;15.00;99.90
40638;DHT22;26336;44.696;10.622;2023-05-20T02:30:57;15.00;99.90
40638;DHT22;26336;44.696;10.622;2023-05-20T02:34:01;15.00;99.90
40638;DHT22;26336;44.696;10.622;2023-05-20T02:37:05;15.00;99.90
40638;DHT22;26336;44.696;10.622;2023-05-20T02:40:09;15.00;99.90
40638;DHT22;26336;44.696;10.622;2023-05-20T02:43:14;15.00;99.90
40638;DHT22;26336;44.696;10.622;2023-05-20T02:46:18;15.00;99.90
40638;DHT22;26336;44.696;10.622;2023-05-20T02:49:22;15.00;99.90
40638;DHT22;26336;44.696;10.622;2023-05-20T02:52:27;15.00;99.90
40638;DHT22;26336;44.696;10.622;2023-05-20T02:55:33;15.00;99.90
40638;DHT22;26336;44.696;10.622;2023-05-20T02:58:38;15.00;99.90
40638;DHT22;26336;44.696;10.622;2023-05-20T03:01:42;15.00;99.90
40638;DHT22;26336;44.696;10.622;2023-05-20T03:04:46;15.00;99.90
40638;DHT22;26336;44.696;10.622;2023-05-20T03:07:50;15.00;99.90
40638;DHT22;26336;44.696;10.622;2023-05-20T03:10:54;15.00;99.90
40638;DHT22;26336;44.696;10.622;2023-05-20T03:13:58;15.00;99.90
40638;DHT22;26336;44.696;10.622;2023-05-20T03:17:01;15.00;99.90
40638;DHT22;26336;44.696;10.622;2023-05-20T03:20:05;15.00;99.90
40638;DHT22;26336;44.696;10.622;2023-05-20T03:23:09;15.00;99.90
40638;DHT22;26336;44.696;10.622;2023-05-20T03:26:14;15.00;99.90
40638;DHT22;26336;44.696;10.622;2023-05-20T03:29:18;15.00;99.90
40638;DHT22;26336;44.696;10.622;2023-05-20T03:32:21;15.00;99.90
40638;DHT22;26336;44.696;10.622;2023-05-20T03:35:25;15.00;99.90
40638;DHT22;26336;44.696;10.622;2023-05-20T03:38:29;15.00;99.90
40638;DHT22;26336;44.696;10.622;2023-05-20T03:41:33;15.00;99.90
40638;DHT22;26336;44.696;10.622;2023-05-20T03:44:37;15.00;99.90
40638;DHT22;26336;44.696;10.622;2023-05-20T03:47:41;15.00;99.90
40638;DHT22;26336;44.696;10.622;2023-05-20T03:50:44;15.00;99.90
40638;DHT22;26336;44.696;10.622;2023-05-20T03:53:48;14.90;99.90
40638;DHT22;26336;44.696;10.622;2023-05-20T03:56:52;14.90;99.90
40638;DHT22;26336;44.696;10.622;2023-05-20T03:59:55;15.00;99.90
40638;DHT22;26336;44.696;10.622;2023-05-20T04:02:58;14.90;99.90
40638;DHT22;26336;44.696;10.622;2023-05-20T04:06:03;14.90;99.90
40638;DHT22;26336;44.696;10.622;2023-05-20T04:09:08;14.90;99.90
40638;DHT22;26336;44.696;10.622;2023-05-20T04:12:12;14.90;99.90
40638;DHT22;26336;44.696;10.622;2023-05-20T04:15:16;14.90;99.90
40638;DHT22;26336;44.696;10.622;2023-05-20T04:18:27;14.90;99.90
40638;DHT22;26336;44.696;10.622;2023-05-20T04:21:35;14.90;99.90
40638;DHT22;26336;44.696;10.622;2023-05-20T04:24:39;14.90;99.90
40638;DHT22;26336;44.696;10.622;2023-05-20T04:27:43;14.90;99.90
40638;DHT22;26336;44.696;10.622;2023-05-20T04:30:46;14.90;99.90
40638;DHT22;26336;44.696;10.622;2023-05-20T04:33:50;14.90;99.90
40638;DHT22;26336;44.696;10.622;2023-05-20T04:36:54;14.90;99.90
40638;DHT22;26336;44.696;10.622;2023-05-20T04:40:01;14.90;99.90
40638;DHT22;26336;44.696;10.622;2023-05-20T04:43:06;15.00;99.90
40638;DHT22;26336;44.696;10.622;2023-05-20T04:46:10;15.00;99.90
40638;DHT22;26336;44.696;10.622;2023-05-20T04:49:14;15.00;99.90
40638;DHT22;26336;44.696;10.622;2023-05-20T04:52:17;15.00;99.90
40638;DHT22;26336;44.696;10.622;2023-05-20T04:55:21;14.90;99.90
40638;DHT22;26336;44.696;10.622;2023-05-20T04:58:27;14.90;99.90
40638;DHT22;26336;44.696;10.622;2023-05-20T05:01:31;15.00;99.90
40638;DHT22;26336;44.696;10.622;2023-05-20T05:04:35;15.00;99.90
40638;DHT22;26336;44.696;10.622;2023-05-20T05:07:40;15.00;99.90
40638;DHT22;26336;44.696;10.622;2023-05-20T05:10:44;15.00;99.90
40638;DHT22;26336;44.696;10.622;2023-05-20T05:13:48;15.00;99.90
40638;DHT22;26336;44.696;10.622;2023-05-20T05:16:52;15.00;99.90
40638;DHT22;26336;44.696;10.622;2023-05-20T05:19:55;14.90;99.90
40638;DHT22;26336;44.696;10.622;2023-05-20T05:23:00;15.00;99.90
40638;DHT22;26336;44.696;10.622;2023-05-20T05:26:03;14.90;99.90
40638;DHT22;26336;44.696;10.622;2023-05-20T05:29:07;15.00;99.90
40638;DHT22;26336;44.696;10.622;2023-05-20T05:32:11;15.00;99.90
40638;DHT22;26336;44.696;10.622;2023-05-20T05:35:14;15.00;99.90
40638;DHT22;26336;44.696;10.622;2023-05-20T05:38:18;15.00;99.90
40638;DHT22;26336;44.696;10.622;2023-05-20T05:41:22;15.00;99.90
40638;DHT22;26336;44.696;10.622;2023-05-20T05:44:26;15.00;99.90
40638;DHT22;26336;44.696;10.622;2023-05-20T05:47:30;15.00;99.90
40638;DHT22;26336;44.696;10.622;2023-05-20T05:50:35;15.00;99.90
40638;DHT22;26336;44.696;10.622;2023-05-20T05:53:39;15.00;99.90
40638;DHT22;26336;44.696;10.622;2023-05-20T05:56:43;15.00;99.90
40638;DHT22;26336;44.696;10.622;2023-05-20T05:59:46;15.00;99.90
40638;DHT22;26336;44.696;10.622;2023-05-20T06:02:51;15.00;99.90
40638;DHT22;26336;44.696;10.622;2023-05-20T06:06:07;15.00;99.90
40638;DHT22;26336;44.696;10.622;2023-05-20T06:09:11;15.00;99.90
40638;DHT22;26336;44.696;10.622;2023-05-20T06:12:15;15.00;99.90
40638;DHT22;26336;44.696;10.622;2023-05-20T06:15:18;15.00;99.90
40638;DHT22;26336;44.696;10.622;2023-05-20T06:18:22;15.00;99.90
40638;DHT22;26336;44.696;10.622;2023-05-20T06:21:30;15.00;99.90
40638;DHT22;26336;44.696;10.622;2023-05-20T06:24:34;15.00;99.90
40638;DHT22;26336;44.696;10.622;2023-05-20T06:27:39;15.00;99.90
40638;DHT22;26336;44.696;10.622;2023-05-20T06:30:45;15.00;99.90
40638;DHT22;26336;44.696;10.622;2023-05-20T06:33:49;15.00;99.90
40638;DHT22;26336;44.696;10.622;2023-05-20T06:36:53;15.10;99.90
40638;DHT22;26336;44.696;10.622;2023-05-20T06:39:56;15.10;99.90
40638;DHT22;26336;44.696;10.622;2023-05-20T06:42:59;15.10;99.90
40638;DHT22;26336;44.696;10.622;2023-05-20T06:46:22;15.10;99.90
40638;DHT22;26336;44.696;10.622;2023-05-20T06:49:31;15.10;99.90
40638;DHT22;26336;44.696;10.622;2023-05-20T06:52:35;15.20;99.90
40638;DHT22;26336;44.696;10.622;2023-05-20T06:55:39;15.10;99.90
40638;DHT22;26336;44.696;10.622;2023-05-20T06:58:43;15.10;99.90
40638;DHT22;26336;44.696;10.622;2023-05-20T07:01:47;15.10;99.90
40638;DHT22;26336;44.696;10.622;2023-05-20T07:04:51;15.20;99.90
40638;DHT22;26336;44.696;10.622;2023-05-20T07:07:55;15.20;99.90
40638;DHT22;26336;44.696;10.622;2023-05-20T07:10:59;15.20;99.90
40638;DHT22;26336;44.696;10.622;2023-05-20T07:14:03;15.20;99.90
40638;DHT22;26336;44.696;10.622;2023-05-20T07:17:09;15.20;99.90
40638;DHT22;26336;44.696;10.622;2023-05-20T07:20:13;15.20;99.90
40638;DHT22;26336;44.696;10.622;2023-05-20T07:23:17;15.20;99.90
40638;DHT22;26336;44.696;10.622;2023-05-20T07:26:25;15.20;99.90
40638;DHT22;26336;44.696;10.622;2023-05-20T07:29:29;15.20;99.90
40638;DHT22;26336;44.696;10.622;2023-05-20T07:32:33;15.20;99.90
40638;DHT22;26336;44.696;10.622;2023-05-20T07:35:37;15.10;99.90
40638;DHT22;26336;44.696;10.622;2023-05-20T07:38:41;15.10;99.90
40638;DHT22;26336;44.696;10.622;2023-05-20T07:41:46;15.10;99.90
40638;DHT22;26336;44.696;10.622;2023-05-20T07:44:50;15.10;99.90
40638;DHT22;26336;44.696;10.622;2023-05-20T07:47:54;15.10;99.90
40638;DHT22;26336;44.696;10.622;2023-05-20T07:50:58;15.10;99.90
40638;DHT22;26336;44.696;10.622;2023-05-20T07:54:03;15.10;99.90
40638;DHT22;26336;44.696;10.622;2023-05-20T07:57:12;15.10;99.90
40638;DHT22;26336;44.696;10.622;2023-05-20T08:00:17;15.10;99.90
40638;DHT22;26336;44.696;10.622;2023-05-20T08:03:21;15.20;99.90
40638;DHT22;26336;44.696;10.622;2023-05-20T08:06:52;15.10;99.90
40638;DHT22;26336;44.696;10.622;2023-05-20T08:10:02;15.20;99.90
40638;DHT22;26336;44.696;10.622;2023-05-20T08:13:06;15.20;99.90
40638;DHT22;26336;44.696;10.622;2023-05-20T08:16:10;15.20;99.90
40638;DHT22;26336;44.696;10.622;2023-05-20T08:19:14;15.20;99.90
40638;DHT22;26336;44.696;10.622;2023-05-20T08:22:18;15.20;99.90
40638;DHT22;26336;44.696;10.622;2023-05-20T08:25:21;15.20;99.90
40638;DHT22;26336;44.696;10.622;2023-05-20T08:28:27;15.20;99.90
40638;DHT22;26336;44.696;10.622;2023-05-20T08:31:31;15.20;99.90
40638;DHT22;26336;44.696;10.622;2023-05-20T08:34:36;15.20;99.90
40638;DHT22;26336;44.696;10.622;2023-05-20T08:37:40;15.10;99.90
40638;DHT22;26336;44.696;10.622;2023-05-20T08:41:00;15.10;99.90
40638;DHT22;26336;44.696;10.622;2023-05-20T08:44:04;15.10;99.90
40638;DHT22;26336;44.696;10.622;2023-05-20T08:47:08;15.20;99.90
40638;DHT22;26336;44.696;10.622;2023-05-20T08:50:14;15.20;99.90
40638;DHT22;26336;44.696;10.622;2023-05-20T08:53:18;15.20;99.90
40638;DHT22;26336;44.696;10.622;2023-05-20T08:56:25;15.20;99.90
40638;DHT22;26336;44.696;10.622;2023-05-20T08:59:31;15.20;99.90
40638;DHT22;26336;44.696;10.622;2023-05-20T09:02:36;15.30;99.90
40638;DHT22;26336;44.696;10.622;2023-05-20T09:05:41;15.20;99.90
40638;DHT22;26336;44.696;10.622;2023-05-20T09:08:49;15.30;99.90
40638;DHT22;26336;44.696;10.622;2023-05-20T09:11:55;15.30;99.90
40638;DHT22;26336;44.696;10.622;2023-05-20T09:14:59;15.30;99.90
40638;DHT22;26336;44.696;10.622;2023-05-20T09:18:03;15.30;99.90
40638;DHT22;26336;44.696;10.622;2023-05-20T09:21:07;15.30;99.90
40638;DHT22;26336;44.696;10.622;2023-05-20T09:24:12;15.30;99.90
40638;DHT22;26336;44.696;10.622;2023-05-20T09:27:24;15.30;99.90
40638;DHT22;26336;44.696;10.622;2023-05-20T09:30:28;15.30;99.90
40638;DHT22;26336;44.696;10.622;2023-05-20T09:33:32;15.40;99.90
40638;DHT22;26336;44.696;10.622;2023-05-20T09:36:38;15.40;99.90
40638;DHT22;26336;44.696;10.622;2023-05-20T09:39:47;15.40;99.90
40638;DHT22;26336;44.696;10.622;2023-05-20T09:42:58;15.50;99.90
40638;DHT22;26336;44.696;10.622;2023-05-20T09:46:09;15.50;99.90
40638;DHT22;26336;44.696;10.622;2023-05-20T09:49:14;15.50;99.90
40638;DHT22;26336;44.696;10.622;2023-05-20T09:52:18;15.50;99.90
40638;DHT22;26336;44.696;10.622;2023-05-20T09:55:26;15.40;99.90
40638;DHT22;26336;44.696;10.622;2023-05-20T09:58:31;15.50;99.90
40638;DHT22;26336;44.696;10.622;2023-05-20T10:01:36;15.40;99.90
40638;DHT22;26336;44.696;10.622;2023-05-20T10:04:40;15.30;99.90
40638;DHT22;26336;44.696;10.622;2023-05-20T10:11:32;15.20;99.90
40638;DHT22;26336;44.696;10.622;2023-05-20T10:18:00;15.30;99.90
40638;DHT22;26336;44.696;10.622;2023-05-20T10:21:13;15.30;99.90
40638;DHT22;26336;44.696;10.622;2023-05-20T10:24:27;15.30;99.90
40638;DHT22;26336;44.696;10.622;2023-05-20T10:27:44;15.40;99.90
40638;DHT22;26336;44.696;10.622;2023-05-20T10:30:48;15.40;99.90
40638;DHT22;26336;44.696;10.622;2023-05-20T10:33:53;15.40;99.90
40638;DHT22;26336;44.696;10.622;2023-05-20T10:36:57;15.50;99.90
40638;DHT22;26336;44.696;10.622;2023-05-20T10:43:12;15.50;99.90
40638;DHT22;26336;44.696;10.622;2023-05-20T10:46:18;15.50;99.90
40638;DHT22;26336;44.696;10.622;2023-05-20T10:49:22;15.50;99.90
40638;DHT22;26336;44.696;10.622;2023-05-20T10:52:25;15.50;99.90
40638;DHT22;26336;44.696;10.622;2023-05-20T10:55:34;15.50;99.90
40638;DHT22;26336;44.696;10.622;2023-05-20T10:58:38;15.50;99.90
40638;DHT22;26336;44.696;10.622;2023-05-20T11:01:41;15.50;99.90
40638;DHT22;26336;44.696;10.622;2023-05-20T11:04:45;15.50;99.90
40638;DHT22;26336;44.696;10.622;2023-05-20T11:07:49;15.50;99.90
40638;DHT22;26336;44.696;10.622;2023-05-20T11:10:55;15.60;99.90
40638;DHT22;26336;44.696;10.622;2023-05-20T11:13:58;15.50;99.90
40638;DHT22;26336;44.696;10.622;2023-05-20T11:17:02;15.50;99.90
40638;DHT22;26336;44.696;10.622;2023-05-20T11:20:07;15.60;99.90
40638;DHT22;26336;44.696;10.622;2023-05-20T11:23:13;15.50;99.90
40638;DHT22;26336;44.696;10.622;2023-05-20T11:26:17;15.60;99.90
40638;DHT22;26336;44.696;10.622;2023-05-20T11:29:21;15.60;99.90
40638;DHT22;26336;44.696;10.622;2023-05-20T11:32:25;15.60;99.90
40638;DHT22;26336;44.696;10.622;2023-05-20T11:35:30;15.60;99.90
40638;DHT22;26336;44.696;10.622;2023-05-20T11:38:34;15.60;99.90
40638;DHT22;26336;44.696;10.622;2023-05-20T11:41:38;15.60;99.90
40638;DHT22;26336;44.696;10.622;2023-05-20T11:44:42;15.60;99.90
40638;DHT22;26336;44.696;10.622;2023-05-20T11:48:00;15.70;99.90
40638;DHT22;26336;44.696;10.622;2023-05-20T11:51:06;15.70;99.90
40638;DHT22;26336;44.696;10.622;2023-05-20T11:54:11;15.70;99.90
40638;DHT22;26336;44.696;10.622;2023-05-20T11:57:15;15.70;99.90
40638;DHT22;26336;44.696;10.622;2023-05-20T12:00:22;15.80;99.90
40638;DHT22;26336;44.696;10.622;2023-05-20T12:03:26;15.80;99.90
40638;DHT22;26336;44.696;10.622;2023-05-20T12:06:29;15.80;99.90
40638;DHT22;26336;44.696;10.622;2023-05-20T12:09:34;15.70;99.90
40638;DHT22;26336;44.696;10.622;2023-05-20T12:12:38;15.80;99.90
40638;DHT22;26336;44.696;10.622;2023-05-20T12:15:41;15.80;99.90
40638;DHT22;26336;44.696;10.622;2023-05-20T12:18:45;15.80;99.90
40638;DHT22;26336;44.696;10.622;2023-05-20T12:21:49;15.80;99.90
40638;DHT22;26336;44.696;10.622;2023-05-20T12:24:55;15.80;99.90
40638;DHT22;26336;44.696;10.622;2023-05-20T12:28:00;15.80;99.90
40638;DHT22;26336;44.696;10.622;2023-05-20T12:31:04;15.80;99.90
40638;DHT22;26336;44.696;10.622;2023-05-20T12:34:08;15.80;99.90
40638;DHT22;26336;44.696;10.622;2023-05-20T12:37:12;15.80;99.90
40638;DHT22;26336;44.696;10.622;2023-05-20T12:40:15;15.80;99.90
40638;DHT22;26336;44.696;10.622;2023-05-20T12:43:19;15.80;99.90
40638;DHT22;26336;44.696;10.622;2023-05-20T12:46:22;15.90;99.90
40638;DHT22;26336;44.696;10.622;2023-05-20T12:49:26;15.90;99.90
40638;DHT22;26336;44.696;10.622;2023-05-20T12:52:29;15.90;99.90
40638;DHT22;26336;44.696;10.622;2023-05-20T12:55:33;15.90;99.90
40638;DHT22;26336;44.696;10.622;2023-05-20T12:58:36;15.90;99.90
40638;DHT22;26336;44.696;10.622;2023-05-20T13:01:40;15.90;99.90
40638;DHT22;26336;44.696;10.622;2023-05-20T13:04:45;16.00;99.90
40638;DHT22;26336;44.696;10.622;2023-05-20T13:07:49;16.00;99.90
40638;DHT22;26336;44.696;10.622;2023-05-20T13:10:52;16.00;99.90
40638;DHT22;26336;44.696;10.622;2023-05-20T13:13:55;16.10;99.90
40638;DHT22;26336;44.696;10.622;2023-05-20T13:17:02;16.10;99.90
40638;DHT22;26336;44.696;10.622;2023-05-20T13:20:06;16.10;99.90
40638;DHT22;26336;44.696;10.622;2023-05-20T13:23:10;16.10;99.90
40638;DHT22;26336;44.696;10.622;2023-05-20T13:26:14;16.10;99.90
40638;DHT22;26336;44.696;10.622;2023-05-20T13:29:18;16.20;99.90
40638;DHT22;26336;44.696;10.622;2023-05-20T13:32:22;16.20;99.90
40638;DHT22;26336;44.696;10.622;2023-05-20T13:35:25;16.20;99.90
40638;DHT22;26336;44.696;10.622;2023-05-20T13:38:28;16.20;99.90
40638;DHT22;26336;44.696;10.622;2023-05-20T13:41:32;16.30;99.90
40638;DHT22;26336;44.696;10.622;2023-05-20T13:44:36;16.30;99.90
40638;DHT22;26336;44.696;10.622;2023-05-20T13:47:40;16.30;99.90
40638;DHT22;26336;44.696;10.622;2023-05-20T13:50:44;16.40;99.90
40638;DHT22;26336;44.696;10.622;2023-05-20T13:53:47;16.40;99.90
40638;DHT22;26336;44.696;10.622;2023-05-20T13:56:51;16.40;99.90
40638;DHT22;26336;44.696;10.622;2023-05-20T13:59:55;16.50;99.90
40638;DHT22;26336;44.696;10.622;2023-05-20T14:02:59;16.50;99.90
40638;DHT22;26336;44.696;10.622;2023-05-20T14:06:03;16.40;99.90
40638;DHT22;26336;44.696;10.622;2023-05-20T14:09:07;16.50;99.90
40638;DHT22;26336;44.696;10.622;2023-05-20T14:12:11;16.50;99.90
40638;DHT22;26336;44.696;10.622;2023-05-20T14:15:15;16.50;99.90
40638;DHT22;26336;44.696;10.622;2023-05-20T14:18:19;16.40;99.90
40638;DHT22;26336;44.696;10.622;2023-05-20T14:21:22;16.40;99.90
40638;DHT22;26336;44.696;10.622;2023-05-20T14:24:26;16.40;99.90
40638;DHT22;26336;44.696;10.622;2023-05-20T14:27:30;16.40;99.90
40638;DHT22;26336;44.696;10.622;2023-05-20T14:30:34;16.40;99.90
40638;DHT22;26336;44.696;10.622;2023-05-20T14:33:38;16.40;99.90
40638;DHT22;26336;44.696;10.622;2023-05-20T14:36:41;16.40;99.90
40638;DHT22;26336;44.696;10.622;2023-05-20T14:39:46;16.40;99.90
40638;DHT22;26336;44.696;10.622;2023-05-20T14:42:50;16.40;99.90
40638;DHT22;26336;44.696;10.622;2023-05-20T14:45:53;16.40;99.90
40638;DHT22;26336;44.696;10.622;2023-05-20T14:48:57;16.40;99.90
40638;DHT22;26336;44.696;10.622;2023-05-20T14:52:00;16.40;99.90
40638;DHT22;26336;44.696;10.622;2023-05-20T14:55:04;16.40;99.90
40638;DHT22;26336;44.696;10.622;2023-05-20T14:58:08;16.40;99.90
40638;DHT22;26336;44.696;10.622;2023-05-20T15:01:12;16.40;99.90
40638;DHT22;26336;44.696;10.622;2023-05-20T15:04:16;16.40;99.90
40638;DHT22;26336;44.696;10.622;2023-05-20T15:07:19;16.30;99.90
40638;DHT22;26336;44.696;10.622;2023-05-20T15:10:23;16.40;99.90
40638;DHT22;26336;44.696;10.622;2023-05-20T15:13:27;16.40;99.90
40638;DHT22;26336;44.696;10.622;2023-05-20T15:16:30;16.40;99.90
40638;DHT22;26336;44.696;10.622;2023-05-20T15:19:34;16.30;99.90
40638;DHT22;26336;44.696;10.622;2023-05-20T15:22:42;16.40;99.90
40638;DHT22;26336;44.696;10.622;2023-05-20T15:25:48;16.40;99.90
40638;DHT22;26336;44.696;10.622;2023-05-20T15:28:52;16.30;99.90
40638;DHT22;26336;44.696;10.622;2023-05-20T15:31:56;16.30;99.90
40638;DHT22;26336;44.696;10.622;2023-05-20T15:35:00;16.40;99.90
40638;DHT22;26336;44.696;10.622;2023-05-20T15:38:04;16.30;99.90
40638;DHT22;26336;44.696;10.622;2023-05-20T15:41:08;16.30;99.90
40638;DHT22;26336;44.696;10.622;2023-05-20T15:44:14;16.30;99.90
40638;DHT22;26336;44.696;10.622;2023-05-20T15:47:18;16.30;99.90
40638;DHT22;26336;44.696;10.622;2023-05-20T15:50:22;16.30;99.90
40638;DHT22;26336;44.696;10.622;2023-05-20T15:53:26;16.30;99.90
40638;DHT22;26336;44.696;10.622;2023-05-20T15:56:30;16.30;99.90
40638;DHT22;26336;44.696;10.622;2023-05-20T15:59:34;16.30;99.90
40638;DHT22;26336;44.696;10.622;2023-05-20T16:02:37;16.30;99.90
40638;DHT22;26336;44.696;10.622;2023-05-20T16:05:45;16.30;99.90
40638;DHT22;26336;44.696;10.622;2023-05-20T16:08:48;16.30;99.90
40638;DHT22;26336;44.696;10.622;2023-05-20T16:11:52;16.30;99.90
40638;DHT22;26336;44.696;10.622;2023-05-20T16:14:56;16.30;99.90
40638;DHT22;26336;44.696;10.622;2023-05-20T16:17:59;16.20;99.90
40638;DHT22;26336;44.696;10.622;2023-05-20T16:21:03;16.20;99.90
40638;DHT22;26336;44.696;10.622;2023-05-20T16:24:09;16.20;99.90
40638;DHT22;26336;44.696;10.622;2023-05-20T16:27:13;16.20;99.90
40638;DHT22;26336;44.696;10.622;2023-05-20T16:30:16;16.20;99.90
40638;DHT22;26336;44.696;10.622;2023-05-20T16:33:20;16.20;99.90
40638;DHT22;26336;44.696;10.622;2023-05-20T16:36:23;16.20;99.90
40638;DHT22;26336;44.696;10.622;2023-05-20T16:39:27;16.20;99.90
40638;DHT22;26336;44.696;10.622;2023-05-20T16:42:31;16.20;99.90
40638;DHT22;26336;44.696;10.622;2023-05-20T16:45:35;16.20;99.90
40638;DHT22;26336;44.696;10.622;2023-05-20T16:48:39;16.30;99.90
40638;DHT22;26336;44.696;10.622;2023-05-20T16:51:43;16.20;99.90
40638;DHT22;26336;44.696;10.622;2023-05-20T16:54:47;16.20;99.90
40638;DHT22;26336;44.696;10.622;2023-05-20T16:57:53;16.20;99.90
40638;DHT22;26336;44.696;10.622;2023-05-20T17:00:57;16.20;99.90
40638;DHT22;26336;44.696;10.622;2023-05-20T17:04:00;16.20;99.90
40638;DHT22;26336;44.696;10.622;2023-05-20T17:07:04;16.30;99.90
40638;DHT22;26336;44.696;10.622;2023-05-20T17:10:12;16.30;99.90
40638;DHT22;26336;44.696;10.622;2023-05-20T17:13:16;16.30;99.90
40638;DHT22;26336;44.696;10.622;2023-05-20T17:16:19;16.30;99.90
40638;DHT22;26336;44.696;10.622;2023-05-20T17:19:24;16.40;99.90
40638;DHT22;26336;44.696;10.622;2023-05-20T17:22:28;16.40;99.90
40638;DHT22;26336;44.696;10.622;2023-05-20T17:25:31;16.40;99.90
40638;DHT22;26336;44.696;10.622;2023-05-20T17:28:35;16.40;99.90
40638;DHT22;26336;44.696;10.622;2023-05-20T17:31:39;16.40;99.90
40638;DHT22;26336;44.696;10.622;2023-05-20T17:34:43;16.40;99.90
40638;DHT22;26336;44.696;10.622;2023-05-20T17:37:46;16.40;99.90
40638;DHT22;26336;44.696;10.622;2023-05-20T17:40:50;16.40;99.90
40638;DHT22;26336;44.696;10.622;2023-05-20T17:43:54;16.40;99.90
40638;DHT22;26336;44.696;10.622;2023-05-20T17:46:58;16.40;99.90
40638;DHT22;26336;44.696;10.622;2023-05-20T17:50:01;16.40;99.90
40638;DHT22;26336;44.696;10.622;2023-05-20T17:53:05;16.50;99.90
40638;DHT22;26336;44.696;10.622;2023-05-20T17:56:09;16.40;99.90
40638;DHT22;26336;44.696;10.622;2023-05-20T17:59:13;16.40;99.90
40638;DHT22;26336;44.696;10.622;2023-05-20T18:02:16;16.40;99.90
40638;DHT22;26336;44.696;10.622;2023-05-20T18:05:23;16.40;99.90
40638;DHT22;26336;44.696;10.622;2023-05-20T18:08:26;16.40;99.90
40638;DHT22;26336;44.696;10.622;2023-05-20T18:11:30;16.40;99.90
40638;DHT22;26336;44.696;10.622;2023-05-20T18:14:34;16.40;99.90
40638;DHT22;26336;44.696;10.622;2023-05-20T18:17:38;16.40;99.90
40638;DHT22;26336;44.696;10.622;2023-05-20T18:20:42;16.40;99.90
40638;DHT22;26336;44.696;10.622;2023-05-20T18:23:46;16.40;99.90
40638;DHT22;26336;44.696;10.622;2023-05-20T18:26:50;16.40;99.90
40638;DHT22;26336;44.696;10.622;2023-05-20T18:29:53;16.40;99.90
40638;DHT22;26336;44.696;10.622;2023-05-20T18:32:57;16.40;99.90
40638;DHT22;26336;44.696;10.622;2023-05-20T18:36:00;16.40;99.90
40638;DHT22;26336;44.696;10.622;2023-05-20T18:39:04;16.40;99.90
40638;DHT22;26336;44.696;10.622;2023-05-20T18:42:08;16.40;99.90
40638;DHT22;26336;44.696;10.622;2023-05-20T18:45:11;16.40;99.90
40638;DHT22;26336;44.696;10.622;2023-05-20T18:48:15;16.40;99.90
40638;DHT22;26336;44.696;10.622;2023-05-20T18:51:19;16.40;99.90
40638;DHT22;26336;44.696;10.622;2023-05-20T18:54:23;16.40;99.90
40638;DHT22;26336;44.696;10.622;2023-05-20T18:57:27;16.40;99.90
40638;DHT22;26336;44.696;10.622;2023-05-20T19:00:30;16.40;99.90
40638;DHT22;26336;44.696;10.622;2023-05-20T19:03:34;16.40;99.90
40638;DHT22;26336;44.696;10.622;2023-05-20T19:06:38;16.40;99.90
40638;DHT22;26336;44.696;10.622;2023-05-20T19:09:42;16.40;99.90
40638;DHT22;26336;44.696;10.622;2023-05-20T19:12:46;16.40;99.90
40638;DHT22;26336;44.696;10.622;2023-05-20T19:15:50;16.40;99.90